Time;durP1;ratioP1;P1;durP2;ratioP2;P2;SDS_P1;SDS_P2;PMS_P1;PMS_P2;Temp;Humidity;BMP_temperature;BMP_pressure;BME280_temperature;BME280_humidity;BME280_pressure;Samples;Min_cycle;Max_cycle;Signal;HPM_P1;HPM_P2
2021/05/02 00:02:08;;;;;;;16.27;13.07;;;7.40;92.60;;;;;;4936877;29;20047;-68
2021/05/02 00:04:34;;;;;;;13.15;11.85;;;7.40;92.50;;;;;;4935980;29;20055;-68
2021/05/02 00:07:03;;;;;;;14.80;11.98;;;7.40;92.50;;;;;;4936845;29;20139;-68
2021/05/02 00:09:30;;;;;;;15.82;12.55;;;7.30;92.60;;;;;;4936932;29;20042;-70
2021/05/02 00:11:57;;;;;;;16.75;13.18;;;7.30;92.70;;;;;;4936202;29;20031;-69
2021/05/02 00:14:22;;;;;;;15.18;12.65;;;7.30;92.80;;;;;;4935567;29;20040;-68
2021/05/02 00:16:51;;;;;;;14.30;12.82;;;7.30;92.70;;;;;;4936474;29;20019;-69
2021/05/02 00:19:19;;;;;;;15.32;13.05;;;7.30;92.70;;;;;;4936006;29;20024;-68
2021/05/02 00:21:46;;;;;;;13.18;11.77;;;7.30;92.70;;;;;;4936337;29;20495;-69
2021/05/02 00:24:13;;;;;;;14.98;13.38;;;7.20;92.70;;;;;;4935960;29;20035;-68
2021/05/02 00:26:38;;;;;;;14.35;12.43;;;7.10;92.90;;;;;;4932699;29;20079;-71
2021/05/02 00:29:06;;;;;;;14.73;12.18;;;7.00;93.00;;;;;;4936071;29;20031;-70
2021/05/02 00:31:32;;;;;;;13.15;11.73;;;7.00;93.00;;;;;;4935102;29;20023;-71
2021/05/02 00:33:57;;;;;;;12.77;10.77;;;6.90;93.10;;;;;;4935871;29;20499;-71
2021/05/02 00:36:24;;;;;;;14.00;11.88;;;6.80;93.10;;;;;;4936339;29;20507;-70
2021/05/02 00:38:49;;;;;;;14.00;11.25;;;6.70;93.20;;;;;;4935150;29;20027;-71
2021/05/02 00:41:27;;;;;;;14.90;11.45;;;6.70;93.20;;;;;;4935738;29;20107;-69
2021/05/02 00:44:02;;;;;;;13.43;12.02;;;6.70;93.30;;;;;;4936011;29;20119;-70
2021/05/02 00:46:38;;;;;;;13.68;11.80;;;6.70;93.40;;;;;;4935661;29;20027;-69
2021/05/02 00:49:27;;;;;;;14.32;11.18;;;6.80;93.50;;;;;;4935941;29;20393;-71
2021/05/02 00:51:58;;;;;;;14.82;11.55;;;6.90;93.40;;;;;;4934654;29;20032;-70
2021/05/02 00:54:38;;;;;;;17.95;12.40;;;6.90;93.50;;;;;;4935351;29;20532;-71
2021/05/02 00:57:10;;;;;;;13.63;11.32;;;7.00;93.20;;;;;;4935946;29;20024;-70
2021/05/02 00:59:43;;;;;;;;;;;7.20;93.20;;;;;;4935999;29;20102;-71
2021/05/02 01:02:11;;;;;;;14.57;11.23;;;7.20;93.10;;;;;;4933825;29;19926;-71
2021/05/02 01:04:42;;;;;;;14.13;11.07;;;7.30;92.80;;;;;;4935533;29;20495;-69
2021/05/02 01:07:14;;;;;;;11.80;10.52;;;7.30;92.70;;;;;;4934673;29;20028;-70
2021/05/02 01:09:40;;;;;;;;;;;7.40;92.70;;;;;;4936101;29;20028;-71
2021/05/02 01:12:11;;;;;;;15.27;9.45;;;7.40;92.50;;;;;;4934462;29;20253;-69
2021/05/02 01:14:43;;;;;;;13.75;9.00;;;7.50;92.30;;;;;;4933443;29;20040;-71
2021/05/02 01:17:11;;;;;;;9.57;8.65;;;7.50;92.10;;;;;;4935737;29;20015;-69
2021/05/02 01:19:38;;;;;;;14.35;9.00;;;7.50;92.00;;;;;;4935577;29;20051;-71
2021/05/02 01:22:14;;;;;;;13.30;8.48;;;7.50;92.00;;;;;;4935348;29;20111;-71
2021/05/02 01:24:45;;;;;;;11.95;8.63;;;7.60;92.00;;;;;;4934219;29;20362;-71
2021/05/02 01:27:35;;;;;;;11.25;7.55;;;7.60;91.70;;;;;;4935551;29;20381;-70
2021/05/02 01:30:05;;;;;;;10.15;8.30;;;7.50;91.50;;;;;;4934628;29;20035;-70
2021/05/02 01:32:31;;;;;;;9.88;7.75;;;7.60;91.50;;;;;;4934137;29;20487;-71
2021/05/02 01:34:58;;;;;;;13.05;7.97;;;7.50;91.40;;;;;;4934041;29;20098;-69
2021/05/02 01:37:23;;;;;;;10.60;7.72;;;7.50;91.40;;;;;;4933379;29;20492;-69
2021/05/02 01:39:49;;;;;;;10.27;8.05;;;7.50;91.40;;;;;;4935051;29;20055;-69
2021/05/02 01:42:15;;;;;;;10.23;7.78;;;7.50;91.40;;;;;;4935444;29;20024;-71
2021/05/02 01:44:41;;;;;;;14.35;7.53;;;7.50;91.40;;;;;;4934451;29;20492;-70
2021/05/02 01:47:14;;;;;;;11.80;7.50;;;7.60;91.40;;;;;;4935240;29;20036;-71
2021/05/02 01:49:47;;;;;;;12.40;7.13;;;7.60;91.30;;;;;;4934301;29;20134;-71
2021/05/02 01:52:13;;;;;;;9.00;7.18;;;7.50;91.20;;;;;;4935094;29;20465;-68
2021/05/02 01:54:39;;;;;;;9.85;7.05;;;7.50;91.10;;;;;;4933622;29;20051;-70
2021/05/02 01:57:07;;;;;;;10.18;7.32;;;7.50;91.10;;;;;;4934562;29;20032;-69
2021/05/02 01:59:34;;;;;;;10.30;7.40;;;7.50;91.10;;;;;;4934901;29;20031;-71
2021/05/02 02:01:59;;;;;;;8.18;7.20;;;7.50;91.10;;;;;;4935005;29;20039;-70
2021/05/02 02:04:28;;;;;;;8.35;6.32;;;7.50;91.00;;;;;;4934365;29;20034;-69
2021/05/02 02:06:55;;;;;;;9.60;6.07;;;7.40;90.90;;;;;;4933686;29;20024;-68
2021/05/02 02:09:21;;;;;;;9.30;5.88;;;7.40;90.90;;;;;;4935063;29;20055;-67
2021/05/02 02:11:50;;;;;;;8.00;6.03;;;7.30;91.00;;;;;;4934344;29;20500;-68
2021/05/02 02:14:16;;;;;;;7.97;5.88;;;7.20;90.90;;;;;;4935147;29;20130;-68
2021/05/02 02:16:45;;;;;;;8.45;5.10;;;7.20;90.90;;;;;;4934887;29;20401;-69
2021/05/02 02:19:10;;;;;;;9.57;5.60;;;7.10;90.90;;;;;;4934927;29;20027;-68
2021/05/02 02:21:36;;;;;;;9.30;5.50;;;7.00;91.00;;;;;;4938525;29;20349;-68
2021/05/02 02:24:03;;;;;;;10.45;5.32;;;6.90;91.00;;;;;;4938762;29;20476;-68
2021/05/02 02:26:35;;;;;;;7.50;4.97;;;6.70;91.00;;;;;;4938100;29;20032;-68
2021/05/02 02:29:03;;;;;;;7.05;5.25;;;6.60;91.10;;;;;;4937866;29;20115;-68
2021/05/02 02:31:33;;;;;;;8.23;5.07;;;6.50;91.30;;;;;;4938708;29;20019;-69
2021/05/02 02:33:59;;;;;;;9.18;5.55;;;6.40;91.40;;;;;;4938228;29;20050;-69
2021/05/02 02:36:25;;;;;;;8.90;4.75;;;6.30;91.50;;;;;;4938600;29;20028;-69
2021/05/02 02:38:51;;;;;;;12.23;5.05;;;6.20;91.70;;;;;;4937566;29;20159;-68
2021/05/02 02:41:18;;;;;;;7.22;5.35;;;6.10;91.80;;;;;;4937128;29;20038;-69
2021/05/02 02:43:57;;;;;;;7.63;5.20;;;6.10;91.90;;;;;;4937138;29;20027;-69
2021/05/02 02:46:24;;;;;;;7.32;5.20;;;6.10;92.10;;;;;;4937873;29;20512;-70
2021/05/02 02:48:58;;;;;;;11.05;6.18;;;6.20;92.20;;;;;;4938109;29;20027;-69
2021/05/02 02:51:26;;;;;;;9.88;6.68;;;6.30;92.30;;;;;;4938517;29;20369;-69
2021/05/02 02:53:53;;;;;;;11.80;6.05;;;6.40;92.20;;;;;;4936034;29;20050;-69
2021/05/02 02:56:22;;;;;;;7.93;5.50;;;6.50;92.10;;;;;;4938271;29;20115;-70
2021/05/02 02:59:01;;;;;;;9.35;6.13;;;6.60;92.00;;;;;;4937837;29;20023;-70
2021/05/02 03:01:26;;;;;;;8.98;6.32;;;6.60;92.00;;;;;;4937362;29;20058;-69
2021/05/02 03:03:54;;;;;;;8.85;6.75;;;6.60;92.00;;;;;;4936656;29;20020;-68
2021/05/02 03:06:24;;;;;;;11.10;6.93;;;6.60;92.10;;;;;;4938164;29;20495;-69
2021/05/02 03:08:53;;;;;;;10.00;6.65;;;6.60;92.10;;;;;;4937006;29;20035;-68
2021/05/02 03:11:19;;;;;;;9.90;6.70;;;6.60;92.00;;;;;;4937907;29;20491;-68
2021/05/02 03:13:45;;;;;;;11.88;7.38;;;6.70;92.00;;;;;;4935945;29;20027;-68
2021/05/02 03:16:11;;;;;;;11.48;6.72;;;6.70;92.00;;;;;;4937561;29;20067;-68
2021/05/02 03:19:00;;;;;;;11.25;7.43;;;6.80;92.00;;;;;;4937459;29;20051;-68
2021/05/02 03:21:38;;;;;;;11.55;6.05;;;6.70;92.00;;;;;;4937051;29;20115;-69
2021/05/02 03:24:07;;;;;;;10.63;6.95;;;6.70;92.10;;;;;;4937840;29;20125;-68
2021/05/02 03:26:34;;;;;;;9.50;6.30;;;6.70;92.10;;;;;;4937206;29;20374;-68
2021/05/02 03:29:03;;;;;;;11.63;7.03;;;6.70;92.10;;;;;;4936899;29;20027;-68
2021/05/02 03:31:31;;;;;;;11.13;6.28;;;6.60;92.10;;;;;;4937590;29;20027;-70
2021/05/02 03:34:02;;;;;;;8.45;6.20;;;6.60;92.20;;;;;;4937451;29;20035;-70
2021/05/02 03:36:39;;;;;;;10.02;5.28;;;6.60;92.20;;;;;;4935638;29;20015;-70
2021/05/02 03:39:05;;;;;;;7.88;5.70;;;6.60;92.30;;;;;;4936023;29;20563;-69
2021/05/02 03:41:34;;;;;;;7.35;5.70;;;6.60;92.30;;;;;;4937176;29;20027;-71
2021/05/02 03:44:00;;;;;;;10.02;5.82;;;6.60;92.30;;;;;;4936618;29;20111;-70
2021/05/02 03:46:26;;;;;;;9.88;6.07;;;6.60;92.30;;;;;;4937580;29;20104;-70
2021/05/02 03:49:00;;;;;;;10.23;6.22;;;6.50;92.40;;;;;;4935916;29;20111;-69
2021/05/02 03:51:27;;;;;;;9.07;6.15;;;6.50;92.40;;;;;;4937395;29;20023;-70
2021/05/02 03:53:54;;;;;;;11.38;6.13;;;6.40;92.40;;;;;;4936757;29;20454;-72
2021/05/02 03:56:30;;;;;;;10.07;6.30;;;6.30;92.40;;;;;;4936539;29;20028;-72
2021/05/02 03:59:19;;;;;;;11.23;5.90;;;6.30;92.60;;;;;;4936947;29;20420;-69
2021/05/02 04:01:49;;;;;;;8.25;5.65;;;6.10;92.80;;;;;;4935359;29;20215;-71
2021/05/02 04:04:16;;;;;;;10.75;5.32;;;6.10;92.90;;;;;;4936311;29;20020;-71
2021/05/02 04:06:42;;;;;;;8.77;5.32;;;6.00;93.00;;;;;;4936741;29;20055;-70
2021/05/02 04:09:10;;;;;;;8.07;5.57;;;5.90;93.10;;;;;;4936934;29;20119;-69
2021/05/02 04:11:36;;;;;;;13.07;5.63;;;5.90;93.20;;;;;;4934812;29;20063;-69
2021/05/02 04:14:07;;;;;;;9.65;5.05;;;5.90;93.30;;;;;;4936845;29;20122;-68
2021/05/02 04:16:33;;;;;;;7.53;5.22;;;5.90;93.30;;;;;;4936391;29;20086;-69
2021/05/02 04:18:59;;;;;;;10.98;5.88;;;5.90;93.20;;;;;;4936059;29;20028;-71
2021/05/02 04:21:25;;;;;;;6.07;5.05;;;5.90;93.20;;;;;;4936793;29;20024;-70
2021/05/02 04:23:51;;;;;;;8.02;5.22;;;5.90;93.20;;;;;;4936404;29;20055;-72
2021/05/02 04:26:18;;;;;;;8.15;4.93;;;5.80;93.20;;;;;;4936100;29;20396;-70
2021/05/02 04:28:43;;;;;;;8.82;5.05;;;5.80;93.40;;;;;;4936266;29;20032;-70
2021/05/02 04:31:09;;;;;;;10.07;5.97;;;5.80;93.40;;;;;;4935768;29;20380;-70
2021/05/02 04:33:34;;;;;;;10.05;5.20;;;5.80;93.50;;;;;;4936231;29;20031;-69
2021/05/02 04:36:00;;;;;;;7.57;4.70;;;5.90;93.60;;;;;;4936429;29;20054;-70
2021/05/02 04:38:25;;;;;;;9.48;4.75;;;5.90;93.40;;;;;;4936101;29;20028;-70
2021/05/02 04:40:51;;;;;;;11.95;6.65;;;6.00;93.30;;;;;;4935995;29;20504;-69
2021/05/02 04:43:16;;;;;;;8.98;4.72;;;6.00;93.30;;;;;;4935982;29;20031;-70
2021/05/02 04:45:42;;;;;;;11.27;4.90;;;5.90;93.20;;;;;;4934371;29;20052;-70
2021/05/02 04:48:08;;;;;;;9.60;5.05;;;5.90;93.20;;;;;;4935818;29;20146;-70
2021/05/02 04:50:34;;;;;;;9.40;4.72;;;5.90;93.20;;;;;;4935569;29;20024;-70
2021/05/02 04:53:02;;;;;;;8.40;4.97;;;5.80;93.20;;;;;;4934226;29;20495;-69
2021/05/02 04:55:29;;;;;;;7.97;4.20;;;5.80;93.30;;;;;;4934666;29;20040;-69
2021/05/02 04:57:57;;;;;;;10.45;4.53;;;5.70;93.30;;;;;;4935790;29;20114;-69
2021/05/02 05:00:24;;;;;;;8.48;4.45;;;5.70;93.40;;;;;;4935271;29;20038;-69
2021/05/02 05:02:50;;;;;;;8.27;4.82;;;5.60;93.40;;;;;;4934199;29;20043;-70
2021/05/02 05:05:16;;;;;;;9.90;4.75;;;5.60;93.40;;;;;;4934467;29;20023;-68
2021/05/02 05:07:41;;;;;;;10.23;4.80;;;5.70;93.50;;;;;;4934921;29;20035;-70
2021/05/02 05:10:08;;;;;;;7.68;4.55;;;5.70;93.40;;;;;;4934233;29;20070;-69
2021/05/02 05:12:33;;;;;;;9.80;5.65;;;5.70;93.40;;;;;;4934277;29;20042;-69
2021/05/02 05:14:59;;;;;;;9.90;4.97;;;5.70;93.50;;;;;;4933801;29;20510;-68
2021/05/02 05:17:24;;;;;;;7.55;4.32;;;5.70;93.40;;;;;;4935737;29;20536;-68
2021/05/02 05:19:50;;;;;;;6.80;4.40;;;5.80;93.30;;;;;;4935212;29;20495;-68
2021/05/02 05:22:15;;;;;;;6.97;3.90;;;5.90;93.20;;;;;;4934948;29;20472;-67
2021/05/02 05:24:41;;;;;;;7.38;4.20;;;5.90;93.20;;;;;;4935391;29;20030;-68
2021/05/02 05:27:07;;;;;;;10.70;5.22;;;5.90;93.10;;;;;;4935822;29;20024;-68
2021/05/02 05:29:32;;;;;;;6.78;4.47;;;5.90;93.00;;;;;;4934579;29;20053;-68
2021/05/02 05:31:58;;;;;;;5.80;3.63;;;5.90;93.00;;;;;;4935190;29;20078;-68
2021/05/02 05:34:24;;;;;;;11.48;4.70;;;5.90;93.00;;;;;;4935371;29;20066;-68
2021/05/02 05:36:49;;;;;;;8.73;4.00;;;5.90;93.00;;;;;;4934664;29;20102;-68
2021/05/02 05:39:15;;;;;;;7.22;4.18;;;6.00;93.10;;;;;;4935511;29;20106;-68
2021/05/02 05:41:40;;;;;;;11.80;4.25;;;6.00;93.00;;;;;;4934570;29;20035;-68
2021/05/02 05:44:07;;;;;;;9.30;4.68;;;6.00;93.00;;;;;;4935223;29;20039;-69
2021/05/02 05:46:32;;;;;;;8.93;3.83;;;6.10;93.00;;;;;;4933918;29;20032;-68
2021/05/02 05:48:58;;;;;;;6.93;4.00;;;6.10;92.90;;;;;;4933617;29;20024;-69
2021/05/02 05:51:23;;;;;;;7.53;4.22;;;6.10;92.90;;;;;;4933741;29;20024;-67
2021/05/02 05:53:49;;;;;;;7.65;3.88;;;6.20;92.80;;;;;;4934059;29;20028;-68
2021/05/02 05:56:14;;;;;;;11.30;6.53;;;6.30;92.80;;;;;;4934618;29;20039;-68
2021/05/02 05:58:40;;;;;;;9.20;4.30;;;6.40;92.80;;;;;;4933294;29;20028;-70
2021/05/02 06:01:05;;;;;;;10.35;4.03;;;6.50;92.70;;;;;;4934355;29;20099;-69
2021/05/02 06:03:31;;;;;;;6.82;4.30;;;6.60;92.60;;;;;;4933868;29;20028;-69
2021/05/02 06:05:56;;;;;;;6.13;3.97;;;6.60;92.60;;;;;;4934968;29;20063;-69
2021/05/02 06:08:22;;;;;;;6.63;3.50;;;6.70;92.60;;;;;;4934924;29;20107;-69
2021/05/02 06:10:47;;;;;;;13.60;7.78;;;6.80;92.40;;;;;;4934050;29;20059;-69
2021/05/02 06:13:20;;;;;;;9.60;4.18;;;6.90;92.30;;;;;;4935130;29;20019;-69
2021/05/02 06:15:45;;;;;;;6.35;3.35;;;6.90;92.20;;;;;;4935040;29;20503;-69
2021/05/02 06:18:11;;;;;;;11.32;3.70;;;7.00;92.20;;;;;;4934326;29;20024;-69
2021/05/02 06:20:37;;;;;;;9.55;3.70;;;7.10;92.00;;;;;;4933949;29;20075;-69
2021/05/02 06:23:02;;;;;;;6.80;3.95;;;7.20;91.90;;;;;;4934295;29;20039;-69
2021/05/02 06:25:28;;;;;;;10.13;7.40;;;7.30;91.90;;;;;;4934030;29;20058;-69
2021/05/02 06:27:53;;;;;;;5.82;3.40;;;7.40;91.70;;;;;;4934557;29;20028;-69
2021/05/02 06:30:20;;;;;;;7.15;3.13;;;7.40;91.20;;;;;;4934559;29;20038;-68
2021/05/02 06:32:45;;;;;;;53.92;46.50;;;7.50;90.80;;;;;;4932641;29;20024;-68
2021/05/02 06:35:11;;;;;;;9.52;3.40;;;7.60;90.70;;;;;;4934870;29;20036;-68
2021/05/02 06:37:36;;;;;;;5.35;3.20;;;7.60;90.40;;;;;;4934426;29;20024;-69
2021/05/02 06:40:03;;;;;;;9.40;3.45;;;7.70;90.00;;;;;;4934124;29;20028;-69
2021/05/02 06:42:28;;;;;;;7.18;2.80;;;7.80;89.90;;;;;;4934710;29;20040;-69
2021/05/02 06:44:54;;;;;;;7.20;3.40;;;7.80;89.90;;;;;;4933691;29;20038;-69
2021/05/02 06:47:20;;;;;;;7.10;2.50;;;7.90;89.40;;;;;;4934846;29;20027;-69
2021/05/02 06:49:46;;;;;;;10.57;3.38;;;8.00;88.30;;;;;;4934466;29;20024;-70
2021/05/02 06:52:11;;;;;;;6.57;2.67;;;8.10;87.00;;;;;;4934006;29;20160;-70
2021/05/02 06:54:37;;;;;;;4.70;2.42;;;8.20;86.90;;;;;;4934252;29;20036;-70
2021/05/02 06:57:02;;;;;;;5.15;2.30;;;8.30;86.90;;;;;;4934557;29;20099;-69
2021/05/02 06:59:28;;;;;;;6.93;3.70;;;8.30;85.80;;;;;;4933653;29;20103;-70
2021/05/02 07:01:54;;;;;;;4.38;2.50;;;8.40;84.70;;;;;;4934001;29;20054;-70
2021/05/02 07:04:19;;;;;;;8.32;2.65;;;8.50;84.20;;;;;;4934542;29;20031;-69
2021/05/02 07:06:45;;;;;;;5.95;2.45;;;8.60;83.70;;;;;;4936466;29;20031;-69
2021/05/02 07:09:11;;;;;;;5.43;2.58;;;8.70;83.70;;;;;;4937787;29;20020;-70
2021/05/02 07:11:36;;;;;;;8.45;3.30;;;8.90;83.70;;;;;;4937211;29;20079;-70
2021/05/02 07:14:03;;;;;;;8.68;2.30;;;9.00;81.50;;;;;;4937608;29;20027;-70
2021/05/02 07:16:29;;;;;;;3.65;2.35;;;9.10;81.10;;;;;;4936606;29;20023;-69
2021/05/02 07:18:55;;;;;;;5.95;2.40;;;9.20;80.70;;;;;;4936242;29;20023;-70
2021/05/02 07:21:21;;;;;;;4.13;2.08;;;9.40;79.30;;;;;;4937176;29;20476;-70
2021/05/02 07:23:51;;;;;;;6.03;2.17;;;9.40;78.10;;;;;;4937413;29;20027;-69
2021/05/02 07:26:18;;;;;;;4.40;2.03;;;9.50;77.20;;;;;;4936981;29;20031;-70
2021/05/02 07:28:44;;;;;;;5.68;2.17;;;9.50;76.70;;;;;;4934791;29;20027;-70
2021/05/02 07:31:11;;;;;;;4.95;2.00;;;9.60;76.10;;;;;;4937048;29;20028;-70
2021/05/02 07:33:40;;;;;;;4.38;2.10;;;9.70;76.50;;;;;;4931507;29;20038;-72
2021/05/02 07:36:07;;;;;;;6.13;2.08;;;9.90;75.90;;;;;;4930234;29;20067;-66
2021/05/02 07:38:33;;;;;;;7.55;2.17;;;10.00;74.80;;;;;;4935346;29;20427;-70
2021/05/02 07:40:59;;;;;;;3.00;2.25;;;10.10;73.70;;;;;;4936870;29;20031;-70
2021/05/02 07:43:25;;;;;;;2.38;2.05;;;10.20;73.60;;;;;;4935495;29;20061;-71
2021/05/02 07:45:51;;;;;;;3.22;1.50;;;10.20;72.80;;;;;;4936383;29;20396;-71
2021/05/02 07:48:17;;;;;;;4.97;2.00;;;10.20;72.60;;;;;;4936320;29;20035;-71
2021/05/02 07:50:43;;;;;;;4.25;1.77;;;10.20;71.50;;;;;;4936408;29;20028;-69
2021/05/02 07:53:08;;;;;;;6.03;3.50;;;10.00;70.70;;;;;;4936352;29;20043;-69
2021/05/02 07:55:34;;;;;;;2.90;1.83;;;9.90;71.10;;;;;;4935711;29;20085;-69
2021/05/02 07:58:01;;;;;;;6.18;2.08;;;9.90;71.70;;;;;;4937023;29;20075;-69
2021/05/02 08:00:26;;;;;;;4.97;1.92;;;9.90;71.60;;;;;;4936305;29;20027;-70
2021/05/02 08:02:52;;;;;;;8.60;3.08;;;10.10;71.10;;;;;;4935982;29;20054;-72
2021/05/02 08:05:18;;;;;;;4.70;2.08;;;10.30;69.60;;;;;;4936546;29;20032;-69
2021/05/02 08:07:44;;;;;;;7.38;1.73;;;10.30;68.40;;;;;;4934802;29;20117;-70
2021/05/02 08:10:11;;;;;;;4.50;1.58;;;10.30;68.80;;;;;;4935625;29;20607;-69
2021/05/02 08:12:37;;;;;;;6.13;2.10;;;10.30;68.90;;;;;;4936234;29;20464;-70
2021/05/02 08:15:04;;;;;;;4.80;3.55;;;10.20;67.20;;;;;;4936316;29;20039;-68
2021/05/02 08:17:30;;;;;;;2.90;1.50;;;10.30;67.90;;;;;;4935073;29;20020;-69
2021/05/02 08:19:55;;;;;;;4.47;2.15;;;10.30;67.40;;;;;;4936411;29;20031;-70
2021/05/02 08:22:21;;;;;;;3.72;1.70;;;10.40;65.80;;;;;;4934525;29;20031;-71
2021/05/02 08:24:47;;;;;;;3.03;1.60;;;10.50;65.60;;;;;;4933873;29;20032;-68
2021/05/02 08:27:12;;;;;;;3.88;1.55;;;10.60;65.60;;;;;;4936451;29;20031;-69
2021/05/02 08:29:38;;;;;;;4.55;1.73;;;10.70;65.80;;;;;;4935776;29;20032;-69
2021/05/02 08:32:04;;;;;;;6.80;1.45;;;10.60;65.70;;;;;;4935546;29;20035;-68
2021/05/02 08:34:30;;;;;;;6.07;1.83;;;10.40;65.10;;;;;;4933715;29;20132;-67
2021/05/02 08:36:56;;;;;;;5.30;3.25;;;10.30;65.70;;;;;;4934899;29;20023;-67
2021/05/02 08:39:22;;;;;;;3.55;1.73;;;10.10;66.30;;;;;;4933939;29;20111;-69
2021/05/02 08:41:47;;;;;;;3.60;1.55;;;10.20;66.20;;;;;;4933665;29;20353;-69
2021/05/02 08:44:17;;;;;;;3.70;1.30;;;10.30;65.80;;;;;;4935639;29;20078;-69
2021/05/02 08:46:45;;;;;;;4.88;1.45;;;10.50;64.70;;;;;;4934872;29;20044;-67
2021/05/02 08:49:10;;;;;;;4.30;1.50;;;10.60;63.70;;;;;;4934572;29;20098;-69
2021/05/02 08:51:36;;;;;;;2.92;1.45;;;10.60;64.50;;;;;;4932707;29;20127;-68
2021/05/02 08:54:02;;;;;;;1.52;1.40;;;10.70;63.50;;;;;;4933620;29;20039;-68
2021/05/02 08:56:27;;;;;;;2.95;1.35;;;10.80;63.40;;;;;;4934339;29;20036;-69
2021/05/02 08:58:53;;;;;;;3.00;1.52;;;11.00;63.60;;;;;;4934271;29;20481;-67
2021/05/02 09:01:29;;;;;;;4.35;1.60;;;11.10;62.70;;;;;;4935863;29;20058;-70
2021/05/02 09:03:55;;;;;;;2.60;1.60;;;11.10;62.60;;;;;;4934385;29;20110;-71
2021/05/02 09:06:29;;;;;;;2.85;1.48;;;11.00;62.40;;;;;;4935307;29;20430;-69
2021/05/02 09:08:57;;;;;;;2.55;1.30;;;10.90;62.70;;;;;;4933705;29;20346;-71
2021/05/02 09:11:37;;;;;;;3.85;1.30;;;10.70;63.60;;;;;;4935093;29;20038;-70
2021/05/02 09:14:10;;;;;;;2.35;1.40;;;10.70;63.50;;;;;;4934396;29;20481;-68
2021/05/02 09:17:12;;;;;;;18.65;10.23;;;10.80;63.00;;;;;;4935246;29;20495;-70
2021/05/02 09:19:51;;;;;;;1.93;1.43;;;10.80;59.70;;;;;;4934325;29;20027;-68
2021/05/02 09:22:18;;;;;;;3.03;1.55;;;10.90;59.60;;;;;;4935451;29;20271;-72
2021/05/02 09:25:11;;;;;;;3.65;1.33;;;11.10;60.30;;;;;;4934961;29;20031;-68
2021/05/02 09:27:49;;;;;;;3.80;1.52;;;11.40;61.30;;;;;;4934498;29;20103;-71
2021/05/02 09:30:18;;;;;;;2.42;1.15;;;11.60;59.60;;;;;;4933324;29;20096;-73
2021/05/02 09:32:44;;;;;;;3.08;1.23;;;11.70;58.90;;;;;;4934816;29;20079;-71
2021/05/02 09:35:30;;;;;;;2.03;1.40;;;11.90;58.20;;;;;;4934220;29;20142;-73
2021/05/02 09:38:16;;;;;;;2.67;1.30;;;11.90;57.40;;;;;;4935159;29;20055;-71
2021/05/02 09:40:53;;;;;;;3.05;1.55;;;11.90;56.90;;;;;;4932754;29;20504;-72
2021/05/02 09:43:51;;;;;;;4.05;1.77;;;11.90;57.50;;;;;;4934976;29;20066;-71
2021/05/02 09:46:33;;;;;;;1.63;1.30;;;11.80;59.10;;;;;;4933344;29;20039;-70
2021/05/02 09:49:09;;;;;;;3.70;2.03;;;11.90;57.40;;;;;;4933878;29;20476;-70
2021/05/02 09:51:36;;;;;;;3.20;1.33;;;12.00;57.90;;;;;;4934364;29;20039;-71
2021/05/02 09:54:10;;;;;;;3.15;1.58;;;12.40;58.50;;;;;;4932717;29;20507;-68
2021/05/02 09:56:47;;;;;;;1.67;1.30;;;12.60;57.60;;;;;;4933621;29;20055;-68
2021/05/02 09:59:29;;;;;;;3.75;1.30;;;12.80;57.30;;;;;;4932884;29;20028;-70
2021/05/02 10:01:58;;;;;;;;;;;12.70;55.40;;;;;;4928210;29;20066;-69
2021/05/02 10:04:30;;;;;;;2.75;1.35;;;12.40;56.70;;;;;;4933458;29;19906;-66
2021/05/02 10:06:56;;;;;;;4.00;1.30;;;12.20;58.10;;;;;;4935288;29;20027;-71
2021/05/02 10:09:22;;;;;;;3.30;1.42;;;12.10;59.60;;;;;;4932692;29;20139;-68
2021/05/02 10:11:47;;;;;;;3.47;1.52;;;12.00;60.20;;;;;;4934439;29;20496;-68
2021/05/02 10:14:13;;;;;;;4.78;1.67;;;11.90;60.10;;;;;;4934929;29;20473;-68
2021/05/02 10:16:39;;;;;;;2.33;1.20;;;11.80;60.80;;;;;;4933551;29;20589;-69
2021/05/02 10:19:09;;;;;;;2.65;1.52;;;11.70;60.10;;;;;;4933346;29;20046;-69
2021/05/02 10:21:37;;;;;;;5.10;2.33;;;11.60;61.30;;;;;;4934466;29;20028;-70
2021/05/02 10:24:03;;;;;;;3.80;1.60;;;11.50;60.60;;;;;;4934109;29;20151;-69
2021/05/02 10:26:29;;;;;;;5.28;1.50;;;11.40;61.20;;;;;;4934361;29;20032;-68
2021/05/02 10:28:55;;;;;;;4.20;2.05;;;11.40;60.70;;;;;;4933069;29;20031;-69
2021/05/02 10:31:28;;;;;;;2.63;1.30;;;11.50;60.90;;;;;;4934218;29;20024;-67
2021/05/02 10:33:54;;;;;;;2.13;1.20;;;11.70;60.50;;;;;;4933891;29;20035;-68
2021/05/02 10:36:24;;;;;;;2.67;1.10;;;11.90;60.00;;;;;;4934662;29;20032;-67
2021/05/02 10:38:56;;;;;;;1.65;1.30;;;12.10;58.40;;;;;;4932907;29;20107;-67
2021/05/02 10:41:31;;;;;;;1.52;1.08;;;12.20;58.80;;;;;;4936672;29;20024;-66
2021/05/02 10:44:19;;;;;;;0.98;0.98;;;12.20;57.60;;;;;;4935751;29;20034;-67
2021/05/02 10:46:57;;;;;;;2.38;1.10;;;12.20;57.40;;;;;;4936824;29;20042;-67
2021/05/02 10:49:23;;;;;;;4.00;1.45;;;12.20;59.00;;;;;;4936591;29;20107;-68
2021/05/02 10:51:50;;;;;;;2.47;1.10;;;12.40;59.10;;;;;;4936730;29;20159;-65
2021/05/02 10:54:21;;;;;;;2.55;1.30;;;12.50;55.90;;;;;;4937821;29;20115;-69
2021/05/02 10:56:54;;;;;;;2.25;0.90;;;12.40;57.00;;;;;;4937691;29;20068;-69
2021/05/02 10:59:25;;;;;;;3.80;1.27;;;12.50;57.80;;;;;;4935855;29;20024;-67
2021/05/02 11:01:51;;;;;;;2.65;1.05;;;12.50;57.80;;;;;;4935979;29;20044;-68
2021/05/02 11:04:17;;;;;;;3.25;1.00;;;12.60;56.50;;;;;;4937275;29;20046;-68
2021/05/02 11:06:42;;;;;;;1.52;1.17;;;12.60;52.80;;;;;;4936510;29;20385;-69
2021/05/02 11:09:10;;;;;;;2.75;1.05;;;12.60;53.30;;;;;;4935479;29;20040;-71
2021/05/02 11:11:45;;;;;;;1.50;0.90;;;12.60;53.40;;;;;;4937113;29;20039;-71
2021/05/02 11:16:37;;;;;;;6.57;1.45;;;12.90;52.30;;;;;;4936742;29;20028;-70
2021/05/02 11:19:05;;;;;;;1.73;1.02;;;13.00;51.70;;;;;;4935771;29;20038;-71
2021/05/02 11:22:11;;;;;;;1.55;1.10;;;13.20;51.30;;;;;;4937564;29;20035;-70
2021/05/02 11:24:40;;;;;;;4.30;1.20;;;13.20;50.40;;;;;;4936975;29;20032;-69
2021/05/02 11:27:14;;;;;;;1.65;1.13;;;13.00;51.40;;;;;;4936868;29;20609;-71
2021/05/02 11:30:01;;;;;;;3.78;1.50;;;13.00;52.10;;;;;;4936600;29;20036;-69
2021/05/02 11:32:27;;;;;;;1.80;1.52;;;12.90;52.10;;;;;;4937082;29;20022;-70
2021/05/02 11:34:58;;;;;;;2.38;1.02;;;12.70;52.00;;;;;;4935623;29;20040;-73
2021/05/02 11:37:45;;;;;;;2.90;1.10;;;12.60;53.10;;;;;;4934836;29;20062;-72
2021/05/02 11:40:29;;;;;;;3.72;1.70;;;12.60;54.50;;;;;;4934047;29;20035;-71
2021/05/02 11:43:03;;;;;;;3.38;2.30;;;12.70;54.60;;;;;;4935941;29;20087;-70
2021/05/02 11:45:40;;;;;;;4.53;1.92;;;12.90;54.30;;;;;;4935518;29;20091;-71
2021/05/02 11:48:07;;;;;;;1.50;1.20;;;13.00;53.80;;;;;;4935309;29;20114;-71
2021/05/02 11:50:43;;;;;;;1.42;1.20;;;13.00;54.10;;;;;;4936438;29;20512;-71
2021/05/02 11:53:09;;;;;;;3.08;1.30;;;12.90;51.30;;;;;;4934180;29;20087;-71
2021/05/02 11:55:38;;;;;;;3.50;1.27;;;12.80;51.90;;;;;;4935845;29;20032;-70
2021/05/02 11:58:13;;;;;;;1.42;1.10;;;12.70;52.60;;;;;;4934422;29;20441;-70
2021/05/02 12:00:44;;;;;;;1.83;1.10;;;12.60;53.20;;;;;;4935731;29;20020;-69
2021/05/02 12:03:18;;;;;;;1.92;1.23;;;12.50;53.60;;;;;;4935345;29;20123;-68
2021/05/02 12:05:51;;;;;;;3.08;1.25;;;12.40;53.90;;;;;;4935590;29;20040;-67
2021/05/02 12:08:18;;;;;;;2.90;1.20;;;12.50;54.40;;;;;;4935880;29;20485;-70
2021/05/02 12:10:44;;;;;;;1.45;1.20;;;12.60;55.80;;;;;;4934543;29;20547;-69
2021/05/02 12:13:33;;;;;;;1.77;1.40;;;12.60;53.90;;;;;;4933088;29;20473;-70
2021/05/02 12:16:03;;;;;;;2.17;1.20;;;12.50;54.30;;;;;;4934860;29;20122;-70
2021/05/02 12:18:52;;;;;;;1.88;1.40;;;12.50;54.50;;;;;;4936013;29;20506;-68
2021/05/02 12:21:18;;;;;;;1.45;1.17;;;12.50;55.20;;;;;;4936576;29;20472;-70
2021/05/02 12:23:45;;;;;;;2.00;1.40;;;12.60;54.10;;;;;;4935299;29;20027;-70
2021/05/02 12:26:12;;;;;;;2.35;1.13;;;12.70;53.50;;;;;;4935625;29;20079;-70
2021/05/02 12:28:39;;;;;;;2.90;1.23;;;12.80;52.80;;;;;;4934480;29;20024;-70
2021/05/02 12:31:07;;;;;;;3.85;1.27;;;12.80;53.40;;;;;;4935543;29;20019;-70
2021/05/02 12:33:37;;;;;;;1.75;1.10;;;12.90;53.50;;;;;;4937858;29;20441;-71
2021/05/02 12:36:04;;;;;;;2.72;1.30;;;13.10;52.20;;;;;;4937938;29;20031;-70
2021/05/02 12:38:30;;;;;;;2.78;1.30;;;13.30;51.60;;;;;;4954178;28;20106;-70
2021/05/02 12:40:56;;;;;;;4.65;1.50;;;13.70;51.40;;;;;;4950427;28;20130;-69
2021/05/02 12:43:28;;;;;;;3.88;1.58;;;14.10;50.20;;;;;;4935994;29;20039;-69
2021/05/02 12:45:54;;;;;;;3.15;1.40;;;14.40;49.30;;;;;;4934831;29;20092;-67
2021/05/02 12:48:28;;;;;;;2.97;1.70;;;14.60;49.50;;;;;;4935336;29;20536;-69
2021/05/02 12:50:56;;;;;;;2.28;1.23;;;14.60;49.50;;;;;;4937068;29;20028;-67
2021/05/02 12:53:34;;;;;;;2.72;1.25;;;14.40;49.30;;;;;;4933962;29;20068;-66
2021/05/02 12:56:00;;;;;;;1.63;1.10;;;13.80;50.70;;;;;;4935469;29;20036;-68
2021/05/02 12:58:39;;;;;;;1.23;1.13;;;13.40;51.60;;;;;;4935390;29;20034;-73
2021/05/02 13:01:14;;;;;;;1.80;0.73;;;13.10;52.10;;;;;;4935330;29;20040;-69
2021/05/02 13:03:50;;;;;;;2.25;1.20;;;12.90;51.70;;;;;;4935050;29;20380;-68